Airfield :
LOGIN :

Register | Disclaimer

   EN    FR    IT 

 










Legend :    VFR   Marginal VFR   IFR   Intensive IFR   Very Intensive IFR
Visi :
Ceiling :
>= 8 km
>= 3000ft
5 to 8 km
1000 to 3000 ft
1500m to 5 km
500 to 1000 ft
800 to 1500m
200 to 500 ft
< 800m
< 200 ft
Symbols :   Thunderstorms  Fog  Heavy snow  Heavy precipitations  Wind > 20 kt
SIGMETs :     Misc.  Thunderstorms  Icing  Turbulence  Mountain Waves  Volcanic Ashes






- Airport Elevation : 699 ft
- IATA code : PAD


EDLP - Paderborn Lippstadt

CURRENT METAR :
  • 162050Z 13007KT CAVOK 01/M01 Q1012

EXPIRED METARs :
  • 162020Z 14005KT CAVOK 03/00 Q1012
  • 161950Z 16007KT CAVOK 04/M00 Q1012
  • 161920Z 13007KT CAVOK 03/M00 Q1011
  • 161850Z 15005KT CAVOK 03/M00 Q1011

TAF TAF EDLP
Valid from the 16 at 18:00 until the 17 at 18:00 UTC


161700Z 1618/1718 17007KT CAVOK
TEMPO 1703/1710 VRB03KT 4000 BR
PROB30
TEMPO 1705/1708 BKN006
BECMG 1710/1713 35006KT
TEMPO 1716/1718 4000 -RA BKN013



MET'MAP, your aeronautical weather chart ! - Copyright ORBIFLY December 2007 - Disclaimer

ORBIFLY MET'MAP TEAM :

Programming & Development : Alexandra Zaïnal
Concept & Development : Baudouin d'Aumeries
Co-Development & Prog : Marc-Olivier Méhu
Technical & hardware support : Manuel Goepfert

Contact : metmap@orbifly.com




SOURCES & CREDITS :

   NOAA